Time;durP1;ratioP1;P1;durP2;ratioP2;P2;SDS_P1;SDS_P2;PMS_P1;PMS_P2;Temp;Humidity;BMP_temperature;BMP_pressure;BME280_temperature;BME280_humidity;BME280_pressure;Samples;Min_cycle;Max_cycle;Signal;HPM_P1;HPM_P2
2022/05/31 00:01:18;;;;;;;0.60;0.60;;;11.50;81.20;;;;;;5050134;28;20182;-64
2022/05/31 00:03:44;;;;;;;0.90;0.80;;;11.50;81.40;;;;;;5045155;28;20185;-64
2022/05/31 00:06:10;;;;;;;1.30;0.90;;;11.40;81.30;;;;;;5037748;28;20194;-63
2022/05/31 00:08:36;;;;;;;1.67;0.97;;;11.40;81.30;;;;;;5041781;28;20288;-64
2022/05/31 00:11:03;;;;;;;0.77;0.77;;;11.30;81.50;;;;;;5046321;28;20190;-63
2022/05/31 00:13:28;;;;;;;2.30;0.87;;;11.30;81.70;;;;;;5067042;28;20178;-63
2022/05/31 00:15:54;;;;;;;2.00;1.20;;;11.30;81.90;;;;;;5054293;28;20428;-63
2022/05/31 00:18:20;;;;;;;0.80;0.80;;;11.20;81.70;;;;;;5049410;28;20204;-63
2022/05/31 00:20:46;;;;;;;1.47;0.70;;;11.20;81.80;;;;;;5089246;28;20420;-63
2022/05/31 00:23:13;;;;;;;1.00;0.90;;;11.20;82.00;;;;;;5055672;28;20450;-63
2022/05/31 00:25:38;;;;;;;1.37;1.00;;;11.20;82.30;;;;;;5072953;28;20178;-63
2022/05/31 00:28:05;;;;;;;1.57;0.80;;;11.10;82.50;;;;;;5054085;28;20475;-63
2022/05/31 00:30:32;;;;;;;2.57;1.20;;;11.10;82.70;;;;;;5065395;28;20185;-63
2022/05/31 00:32:57;;;;;;;2.00;1.10;;;11.10;82.70;;;;;;5065179;28;20470;-64
2022/05/31 00:35:28;;;;;;;4.60;1.07;;;11.00;82.80;;;;;;5077305;28;20433;-63
2022/05/31 00:37:56;;;;;;;0.73;0.73;;;11.00;82.80;;;;;;5057734;28;20190;-63
2022/05/31 00:40:24;;;;;;;3.10;0.83;;;11.00;82.90;;;;;;5067340;28;20448;-64
2022/05/31 00:42:55;;;;;;;2.93;0.93;;;10.90;82.90;;;;;;5051940;28;20515;-64
2022/05/31 00:45:45;;;;;;;1.20;0.80;;;10.80;82.80;;;;;;5071628;28;20420;-64
2022/05/31 00:48:17;;;;;;;2.10;0.93;;;10.80;82.90;;;;;;5072144;28;20524;-64
2022/05/31 00:50:48;;;;;;;0.87;0.83;;;10.80;83.00;;;;;;5059931;28;20428;-63
2022/05/31 00:53:23;;;;;;;2.33;0.93;;;10.70;83.00;;;;;;5069717;28;20538;-64
2022/05/31 00:55:52;;;;;;;2.73;1.80;;;10.70;83.20;;;;;;5064902;28;20420;-64
2022/05/31 00:58:43;;;;;;;1.80;1.13;;;10.60;83.30;;;;;;5072066;28;20523;-64
2022/05/31 01:01:12;;;;;;;2.47;1.10;;;10.60;83.30;;;;;;5059184;28;20424;-64
2022/05/31 01:03:41;;;;;;;2.60;1.37;;;10.50;83.50;;;;;;5070907;28;20434;-63
2022/05/31 01:06:07;;;;;;;1.60;1.10;;;10.50;83.80;;;;;;5071634;28;20514;-64
2022/05/31 01:08:34;;;;;;;5.63;1.23;;;10.50;83.90;;;;;;5038850;28;20498;-64
2022/05/31 01:11:01;;;;;;;1.27;1.07;;;10.50;84.00;;;;;;5052778;28;20536;-64
2022/05/31 01:13:28;;;;;;;1.10;1.00;;;10.50;84.10;;;;;;5067039;28;20522;-64
2022/05/31 01:16:03;;;;;;;1.00;0.87;;;10.50;84.00;;;;;;5064652;28;20417;-64
2022/05/31 01:18:29;;;;;;;3.87;1.20;;;10.40;84.00;;;;;;5075224;28;20435;-64
2022/05/31 01:20:55;;;;;;;1.20;0.93;;;10.40;84.20;;;;;;5057025;28;20435;-64
2022/05/31 01:23:24;;;;;;;2.40;1.00;;;10.30;84.50;;;;;;5055378;28;20968;-64
2022/05/31 01:25:50;;;;;;;1.20;1.10;;;10.30;84.50;;;;;;5060351;28;20202;-64
2022/05/31 01:28:40;;;;;;;4.00;1.10;;;10.30;84.50;;;;;;5062426;28;20468;-63
2022/05/31 01:31:46;;;;;;;2.20;1.00;;;10.20;84.20;;;;;;5068023;28;20428;-63
2022/05/31 01:34:15;;;;;;;1.97;1.10;;;10.20;84.30;;;;;;5059889;28;20428;-64
2022/05/31 01:36:48;;;;;;;5.33;1.30;;;10.10;84.50;;;;;;5054603;28;20413;-64
2022/05/31 01:39:28;;;;;;;1.60;1.10;;;10.10;84.80;;;;;;5079549;28;20682;-63
2022/05/31 01:41:59;;;;;;;3.43;1.23;;;10.00;84.60;;;;;;5065349;28;20563;-63
2022/05/31 01:44:30;;;;;;;2.00;1.30;;;10.00;84.50;;;;;;5070161;28;20440;-63
2022/05/31 01:46:57;;;;;;;1.93;1.10;;;10.00;84.60;;;;;;5089331;28;20469;-63
2022/05/31 01:49:30;;;;;;;2.10;1.00;;;9.90;84.80;;;;;;5057985;28;20432;-64
2022/05/31 01:51:56;;;;;;;2.13;1.00;;;9.80;84.90;;;;;;5057684;28;20424;-63
2022/05/31 01:54:22;;;;;;;1.00;1.00;;;9.80;85.00;;;;;;5058994;28;20432;-63
2022/05/31 01:56:55;;;;;;;2.67;1.00;;;9.70;85.10;;;;;;5042349;28;20463;-63
2022/05/31 01:59:21;;;;;;;1.67;1.53;;;9.70;85.00;;;;;;5061086;28;20177;-64
2022/05/31 02:01:47;;;;;;;1.97;1.50;;;9.70;85.20;;;;;;5055445;28;20433;-63
2022/05/31 02:04:17;;;;;;;1.23;1.13;;;9.60;85.30;;;;;;5061301;28;20435;-63
2022/05/31 02:06:42;;;;;;;3.53;1.50;;;9.60;85.50;;;;;;5058627;28;20507;-64
2022/05/31 02:09:11;;;;;;;2.30;1.63;;;9.60;85.40;;;;;;5041349;28;20551;-64
2022/05/31 02:11:37;;;;;;;1.10;1.03;;;9.50;85.50;;;;;;5067833;28;20188;-63
2022/05/31 02:14:04;;;;;;;1.10;0.93;;;9.40;85.80;;;;;;5068569;28;20506;-63
2022/05/31 02:16:30;;;;;;;3.77;1.30;;;9.40;85.90;;;;;;5058941;28;20473;-64
2022/05/31 02:21:41;;;;;;;1.97;1.47;;;9.40;86.00;;;;;;5071218;28;20414;-64
2022/05/31 02:24:09;;;;;;;4.43;1.30;;;9.30;86.10;;;;;;5068089;28;20522;-64
2022/05/31 02:26:35;;;;;;;3.57;1.43;;;9.30;86.30;;;;;;5067906;28;20466;-63
2022/05/31 02:29:02;;;;;;;2.40;1.17;;;9.30;86.30;;;;;;5055187;28;20464;-63
2022/05/31 02:31:29;;;;;;;2.17;1.20;;;9.30;86.30;;;;;;5064257;28;20522;-64
2022/05/31 02:33:55;;;;;;;3.80;1.30;;;9.30;86.10;;;;;;5075191;28;20458;-62
2022/05/31 02:36:21;;;;;;;1.70;1.10;;;9.30;86.00;;;;;;5056731;28;20432;-63
2022/05/31 02:38:46;;;;;;;1.70;1.10;;;9.30;86.10;;;;;;5041398;28;20190;-63
2022/05/31 02:41:12;;;;;;;1.37;1.13;;;9.30;86.20;;;;;;5071461;28;20190;-63
2022/05/31 02:43:38;;;;;;;2.87;1.37;;;9.20;86.30;;;;;;5069273;28;20256;-65
2022/05/31 02:46:04;;;;;;;2.83;1.23;;;9.20;86.20;;;;;;5047183;28;20190;-64
2022/05/31 02:48:30;;;;;;;2.80;1.50;;;9.20;86.30;;;;;;5059005;28;20213;-64
2022/05/31 02:50:56;;;;;;;1.50;1.10;;;9.10;86.40;;;;;;5072296;28;20185;-62
2022/05/31 02:53:21;;;;;;;3.30;1.00;;;9.10;86.70;;;;;;5054631;28;20425;-63
2022/05/31 02:55:47;;;;;;;1.53;1.03;;;9.10;86.60;;;;;;5054123;28;20194;-63
2022/05/31 02:58:13;;;;;;;1.47;1.10;;;9.10;86.60;;;;;;5053253;28;20208;-63
2022/05/31 03:00:39;;;;;;;6.20;1.40;;;9.10;86.60;;;;;;5055759;28;20195;-63
2022/05/31 03:03:05;;;;;;;1.57;1.07;;;9.00;86.70;;;;;;5056228;28;20502;-63
2022/05/31 03:05:32;;;;;;;1.30;1.10;;;9.10;86.90;;;;;;5069875;28;20186;-62
2022/05/31 03:07:58;;;;;;;3.13;1.53;;;9.10;86.90;;;;;;5060703;28;20311;-62
2022/05/31 03:10:30;;;;;;;2.13;1.13;;;9.00;86.90;;;;;;5056362;28;20432;-63
2022/05/31 03:12:56;;;;;;;1.40;1.30;;;9.00;86.90;;;;;;5066936;28;20520;-61
2022/05/31 03:15:23;;;;;;;3.20;1.40;;;9.00;86.90;;;;;;5038903;28;20517;-64
2022/05/31 03:17:53;;;;;;;1.90;1.73;;;9.00;87.00;;;;;;5064665;28;20277;-62
2022/05/31 03:20:27;;;;;;;2.63;1.33;;;9.00;87.00;;;;;;5070021;28;20440;-62
2022/05/31 03:23:05;;;;;;;2.50;1.67;;;9.00;87.10;;;;;;5066741;28;20424;-61
2022/05/31 03:25:32;;;;;;;3.87;1.63;;;9.00;87.20;;;;;;5066084;28;20433;-62
2022/05/31 03:28:01;;;;;;;1.97;1.80;;;8.90;87.10;;;;;;5048230;28;20479;-62
2022/05/31 03:30:27;;;;;;;1.77;1.67;;;8.90;87.30;;;;;;5063639;28;20428;-61
2022/05/31 03:32:56;;;;;;;3.40;1.90;;;9.00;87.30;;;;;;5049648;28;20470;-63
2022/05/31 03:35:22;;;;;;;1.67;1.50;;;9.00;87.30;;;;;;5061926;28;20471;-63
2022/05/31 03:37:47;;;;;;;2.43;1.63;;;9.00;87.30;;;;;;5056787;28;20440;-62
2022/05/31 03:40:56;;;;;;;3.23;1.60;;;9.00;87.40;;;;;;5058861;28;20201;-62
2022/05/31 03:43:00;;;;;;;4.90;1.87;;;9.00;87.50;;;;;;5060918;28;20234;-62
2022/05/31 03:45:35;;;;;;;2.53;1.97;;;9.00;87.50;;;;;;5046407;28;20446;-63
2022/05/31 03:48:02;;;;;;;3.57;2.00;;;8.90;87.30;;;;;;5075948;28;20475;-64
2022/05/31 03:50:27;;;;;;;4.80;2.10;;;8.90;87.20;;;;;;5062088;28;20451;-64
2022/05/31 03:52:53;;;;;;;1.90;1.80;;;8.90;87.10;;;;;;5041472;28;20433;-64
2022/05/31 03:55:19;;;;;;;2.27;1.70;;;8.90;87.10;;;;;;5058924;28;20190;-64
2022/05/31 03:57:47;;;;;;;2.93;1.70;;;8.90;87.20;;;;;;5054321;28;20525;-64
2022/05/31 04:00:14;;;;;;;3.33;2.07;;;9.00;87.20;;;;;;5063822;28;20189;-64
2022/05/31 04:02:40;;;;;;;2.63;1.90;;;9.00;87.20;;;;;;5070208;28;20427;-64
2022/05/31 04:05:06;;;;;;;7.47;2.60;;;9.00;87.20;;;;;;5058373;28;20439;-64
2022/05/31 04:07:32;;;;;;;3.40;2.23;;;9.00;87.20;;;;;;5055404;28;20220;-64
2022/05/31 04:09:57;;;;;;;2.77;2.07;;;9.10;87.20;;;;;;5063942;28;20439;-64
2022/05/31 04:12:23;;;;;;;4.33;2.20;;;9.00;87.10;;;;;;5036150;28;20433;-64
2022/05/31 04:14:49;;;;;;;2.73;1.77;;;9.10;86.90;;;;;;5061237;28;20177;-62
2022/05/31 04:17:14;;;;;;;4.07;2.00;;;9.10;87.00;;;;;;5062915;28;20266;-62
2022/05/31 04:19:40;;;;;;;1.80;1.70;;;9.10;87.00;;;;;;5071546;28;20200;-62
2022/05/31 04:22:06;;;;;;;2.10;1.90;;;9.10;87.00;;;;;;5065724;28;20196;-61
2022/05/31 04:24:32;;;;;;;2.00;1.80;;;9.20;87.00;;;;;;5027814;28;20191;-63
2022/05/31 04:26:58;;;;;;;4.33;1.80;;;9.20;87.00;;;;;;5054637;28;20268;-63
2022/05/31 04:29:24;;;;;;;1.90;1.80;;;9.30;87.10;;;;;;5052504;28;20519;-63
2022/05/31 04:31:50;;;;;;;2.20;2.00;;;9.30;87.10;;;;;;5064829;28;20185;-64
2022/05/31 04:34:16;;;;;;;2.70;2.30;;;9.30;87.20;;;;;;5055174;28;20245;-63
2022/05/31 04:36:42;;;;;;;3.00;2.40;;;9.30;87.20;;;;;;5049926;28;20598;-63
2022/05/31 04:39:08;;;;;;;3.87;2.40;;;9.40;87.10;;;;;;5051237;28;20196;-63
2022/05/31 04:41:34;;;;;;;4.03;2.27;;;9.50;87.10;;;;;;5053180;28;20447;-63
2022/05/31 04:44:04;;;;;;;5.60;2.50;;;9.50;87.00;;;;;;5064258;28;20446;-62
2022/05/31 04:46:32;;;;;;;3.20;2.67;;;9.60;86.90;;;;;;5063008;28;20247;-63
2022/05/31 04:48:59;;;;;;;2.90;2.60;;;9.60;86.80;;;;;;5054923;28;20460;-63
2022/05/31 04:51:29;;;;;;;2.90;2.67;;;9.70;86.70;;;;;;5059086;28;20529;-63
2022/05/31 04:53:55;;;;;;;2.63;2.43;;;9.80;86.60;;;;;;5061391;28;20448;-62
2022/05/31 04:56:21;;;;;;;5.47;2.80;;;9.80;86.60;;;;;;5063427;28;20473;-63
2022/05/31 04:58:52;;;;;;;4.77;2.77;;;9.80;86.50;;;;;;5053972;28;20221;-62
2022/05/31 05:01:18;;;;;;;2.83;2.50;;;9.80;86.40;;;;;;5079775;28;20523;-62
2022/05/31 05:03:46;;;;;;;2.90;2.50;;;9.80;86.30;;;;;;5060444;28;20508;-62
2022/05/31 05:06:14;;;;;;;4.07;2.57;;;9.90;86.30;;;;;;5054731;28;20200;-62
2022/05/31 05:08:39;;;;;;;3.03;2.67;;;9.90;86.30;;;;;;5058780;28;20460;-62
2022/05/31 05:11:09;;;;;;;3.50;2.60;;;10.00;86.10;;;;;;5067621;28;20523;-62
2022/05/31 05:13:35;;;;;;;3.20;2.53;;;10.00;86.10;;;;;;5065657;28;20186;-63
2022/05/31 05:16:01;;;;;;;4.47;2.67;;;10.10;85.90;;;;;;5036121;28;20958;-62
2022/05/31 05:18:29;;;;;;;3.03;2.73;;;10.10;85.90;;;;;;5053805;28;20471;-62
2022/05/31 05:20:55;;;;;;;2.57;2.37;;;10.20;85.80;;;;;;5039366;28;20195;-62
2022/05/31 05:23:21;;;;;;;2.93;1.90;;;10.20;85.70;;;;;;5057396;28;20446;-62
2022/05/31 05:25:51;;;;;;;3.53;2.20;;;10.30;85.60;;;;;;5057683;28;20195;-63
2022/05/31 05:31:03;;;;;;;5.83;2.50;;;10.30;85.40;;;;;;5063219;28;20447;-62
2022/05/31 05:33:29;;;;;;;3.97;2.87;;;10.40;85.40;;;;;;5063720;28;20456;-62
2022/05/31 05:35:55;;;;;;;3.70;2.80;;;10.50;85.40;;;;;;5061988;28;20522;-62
2022/05/31 05:38:21;;;;;;;2.40;2.20;;;10.50;85.40;;;;;;5079199;28;20526;-62
2022/05/31 05:40:46;;;;;;;3.47;2.67;;;10.50;85.50;;;;;;5067383;28;20232;-63
2022/05/31 05:43:13;;;;;;;3.00;2.70;;;10.60;85.50;;;;;;5048923;28;20295;-62
2022/05/31 05:45:39;;;;;;;5.23;3.23;;;10.60;85.50;;;;;;5065159;28;20182;-63
2022/05/31 05:48:05;;;;;;;2.50;2.30;;;10.70;85.30;;;;;;5053612;28;20472;-62
2022/05/31 05:50:33;;;;;;;4.90;2.93;;;10.70;85.40;;;;;;5069730;28;20470;-62
2022/05/31 05:53:02;;;;;;;4.97;3.20;;;10.70;85.30;;;;;;5074136;28;20432;-62
2022/05/31 05:55:27;;;;;;;4.60;3.17;;;10.80;85.30;;;;;;5070098;28;20484;-62
2022/05/31 05:57:54;;;;;;;3.77;2.77;;;10.80;85.20;;;;;;5063881;28;20475;-62
2022/05/31 06:00:21;;;;;;;3.10;2.60;;;10.90;84.70;;;;;;5066922;28;20205;-62
2022/05/31 06:02:53;;;;;;;3.37;2.67;;;11.00;84.60;;;;;;5059477;28;20454;-62
2022/05/31 06:05:39;;;;;;;2.87;2.63;;;11.10;84.40;;;;;;5062070;28;20516;-62
2022/05/31 06:08:11;;;;;;;4.83;2.70;;;11.20;84.30;;;;;;5069276;28;20472;-62
2022/05/31 06:10:39;;;;;;;4.00;3.03;;;11.20;84.10;;;;;;5058337;28;20448;-62
2022/05/31 06:13:14;;;;;;;3.10;2.90;;;11.30;82.60;;;;;;5060796;28;20424;-62
2022/05/31 06:15:44;;;;;;;4.47;2.83;;;11.40;81.60;;;;;;5063965;28;20428;-62
2022/05/31 06:18:16;;;;;;;2.87;2.63;;;11.60;81.60;;;;;;5069540;28;20513;-62
2022/05/31 06:20:47;;;;;;;2.83;2.53;;;11.70;81.40;;;;;;5065789;28;20424;-62
2022/05/31 06:23:14;;;;;;;3.00;2.70;;;11.80;81.20;;;;;;5059953;28;20444;-62
2022/05/31 06:25:40;;;;;;;2.57;2.37;;;11.90;80.70;;;;;;5061404;28;20462;-62
2022/05/31 06:28:05;;;;;;;2.80;2.50;;;12.00;80.10;;;;;;5072260;28;20221;-62
2022/05/31 06:30:31;;;;;;;2.40;2.20;;;12.10;79.20;;;;;;5066741;28;20218;-62
2022/05/31 06:32:57;;;;;;;3.97;2.50;;;12.20;78.70;;;;;;5053798;28;20289;-62
2022/05/31 06:35:22;;;;;;;2.40;2.20;;;12.30;79.30;;;;;;5039377;28;20186;-62
2022/05/31 06:37:48;;;;;;;2.87;2.67;;;12.30;79.00;;;;;;5035332;28;20197;-63
2022/05/31 06:40:13;;;;;;;3.43;2.87;;;12.40;79.30;;;;;;5055966;28;20213;-62
2022/05/31 06:42:39;;;;;;;2.80;2.50;;;12.50;80.00;;;;;;5060059;28;20230;-61
2022/05/31 06:45:05;;;;;;;2.57;2.37;;;12.50;80.00;;;;;;5052314;28;20201;-61
2022/05/31 06:47:31;;;;;;;3.70;2.30;;;12.50;79.40;;;;;;5056082;28;20216;-61
2022/05/31 06:49:57;;;;;;;3.10;2.80;;;12.60;79.00;;;;;;5056672;28;20182;-62
2022/05/31 06:57:52;;;;;;;2.90;2.37;;;12.90;77.10;;;;;;5068830;28;20198;-62
2022/05/31 07:00:20;;;;;;;2.20;2.00;;;12.90;77.80;;;;;;5072859;28;20196;-63
2022/05/31 07:02:46;;;;;;;2.70;2.00;;;13.00;77.30;;;;;;5071220;28;20200;-63
2022/05/31 07:05:13;;;;;;;2.33;2.13;;;13.00;78.20;;;;;;5069133;28;20192;-63
2022/05/31 07:07:40;;;;;;;3.23;2.10;;;13.10;78.40;;;;;;5068729;28;20222;-63
2022/05/31 07:10:07;;;;;;;2.63;2.07;;;13.10;79.10;;;;;;5059471;28;20201;-63
2022/05/31 07:12:33;;;;;;;2.53;2.10;;;13.20;79.10;;;;;;5073937;28;20182;-63
2022/05/31 07:14:59;;;;;;;2.13;1.80;;;13.20;78.50;;;;;;5051682;28;20190;-63
2022/05/31 07:17:25;;;;;;;2.23;2.03;;;13.20;76.80;;;;;;5063972;28;20466;-62
2022/05/31 07:19:51;;;;;;;2.60;1.70;;;13.30;77.80;;;;;;5063238;28;20192;-62
2022/05/31 07:22:17;;;;;;;1.80;1.53;;;13.30;77.20;;;;;;5032316;28;20194;-62
2022/05/31 07:24:42;;;;;;;3.03;1.70;;;13.30;77.60;;;;;;5051424;28;20233;-62
2022/05/31 07:27:08;;;;;;;1.57;1.47;;;13.30;78.10;;;;;;5059968;28;20193;-62
2022/05/31 07:29:34;;;;;;;1.87;1.40;;;13.40;78.40;;;;;;5057139;28;20231;-62
2022/05/31 07:32:01;;;;;;;3.20;1.27;;;13.40;77.70;;;;;;5058840;28;20209;-62
2022/05/31 07:34:26;;;;;;;1.67;1.30;;;13.50;76.90;;;;;;5051311;28;20190;-62
2022/05/31 07:36:52;;;;;;;1.80;1.40;;;13.50;77.10;;;;;;5042737;28;20186;-62
2022/05/31 07:39:20;;;;;;;1.40;1.07;;;13.60;76.80;;;;;;5053060;28;20235;-62
2022/05/31 07:41:49;;;;;;;1.67;1.30;;;13.60;77.10;;;;;;5059976;28;20279;-62
2022/05/31 07:44:16;;;;;;;1.17;1.07;;;13.70;75.40;;;;;;5070382;28;20189;-62
2022/05/31 07:46:42;;;;;;;1.57;1.20;;;13.80;75.70;;;;;;5057682;28;20196;-62
2022/05/31 07:49:08;;;;;;;1.50;1.40;;;13.80;71.50;;;;;;5056584;28;20295;-62
2022/05/31 07:51:34;;;;;;;1.83;1.23;;;13.90;72.10;;;;;;5070855;28;20182;-62
2022/05/31 07:53:59;;;;;;;1.70;1.47;;;14.00;73.10;;;;;;5051370;28;20197;-62
2022/05/31 07:56:27;;;;;;;1.30;1.20;;;14.20;73.80;;;;;;5060629;28;20182;-62
2022/05/31 07:58:53;;;;;;;1.77;0.93;;;14.20;71.10;;;;;;5053871;28;20223;-62
2022/05/31 08:01:25;;;;;;;1.00;1.00;;;14.30;71.50;;;;;;5054551;28;20186;-62
2022/05/31 08:03:52;;;;;;;1.10;0.90;;;14.40;72.10;;;;;;5070719;28;20215;-62
2022/05/31 08:06:23;;;;;;;1.00;1.00;;;14.50;69.30;;;;;;5071426;28;20231;-62
2022/05/31 08:08:50;;;;;;;1.20;1.10;;;14.70;70.30;;;;;;5064033;28;20217;-62
2022/05/31 08:11:19;;;;;;;0.90;0.80;;;14.70;68.80;;;;;;5062696;28;20182;-62
2022/05/31 08:13:46;;;;;;;1.30;0.90;;;14.80;68.70;;;;;;5053304;28;20214;-62
2022/05/31 08:16:14;;;;;;;0.77;0.77;;;14.80;68.50;;;;;;5045020;28;20204;-62
2022/05/31 08:18:42;;;;;;;0.80;0.73;;;15.00;68.10;;;;;;5058622;28;20196;-62
2022/05/31 08:21:11;;;;;;;1.20;1.10;;;15.10;69.00;;;;;;5061730;28;20193;-62
2022/05/31 08:23:38;;;;;;;0.70;0.70;;;15.20;69.80;;;;;;5067329;28;20190;-62
2022/05/31 08:26:05;;;;;;;0.70;0.70;;;15.30;70.50;;;;;;5038479;28;20222;-62
2022/05/31 08:28:32;;;;;;;2.07;1.00;;;15.30;69.70;;;;;;5063803;28;20209;-62
2022/05/31 08:31:04;;;;;;;1.10;0.90;;;15.40;68.40;;;;;;5069320;28;20189;-62
2022/05/31 08:33:29;;;;;;;0.80;0.80;;;15.50;65.90;;;;;;5068714;28;20174;-62
2022/05/31 08:35:55;;;;;;;2.17;0.93;;;15.60;64.50;;;;;;5037351;28;20224;-62
2022/05/31 08:38:22;;;;;;;0.70;0.70;;;15.60;65.90;;;;;;5064043;28;20277;-62
2022/05/31 08:41:14;;;;;;;1.03;0.93;;;15.70;67.00;;;;;;5065008;28;20185;-62
2022/05/31 08:44:14;;;;;;;0.87;0.87;;;15.80;66.40;;;;;;5057222;28;20272;-62
2022/05/31 08:47:07;;;;;;;2.23;1.10;;;15.80;65.40;;;;;;5037367;28;20190;-62
2022/05/31 08:52:57;;;;;;;1.00;0.90;;;16.00;64.40;;;;;;5065477;28;20216;-62
2022/05/31 08:58:18;;;;;;;1.37;1.27;;;16.30;62.40;;;;;;5060236;28;20197;-62
2022/05/31 09:00:46;;;;;;;0.80;0.80;;;16.40;62.30;;;;;;5083726;28;20185;-62
2022/05/31 09:03:29;;;;;;;1.33;1.00;;;16.50;60.90;;;;;;5058915;28;20195;-62
2022/05/31 09:06:00;;;;;;;2.80;1.07;;;16.50;62.30;;;;;;5055713;28;20187;-62
2022/05/31 09:08:37;;;;;;;1.20;1.10;;;16.60;63.00;;;;;;5071873;28;20247;-62
2022/05/31 09:11:17;;;;;;;2.80;1.50;;;16.70;60.90;;;;;;5061520;28;20193;-63
2022/05/31 09:13:55;;;;;;;2.97;1.47;;;16.80;60.30;;;;;;5073452;28;20188;-62
2022/05/31 09:16:49;;;;;;;2.93;1.30;;;16.90;59.10;;;;;;5066546;28;20193;-62
2022/05/31 09:19:36;;;;;;;2.40;1.40;;;17.00;59.90;;;;;;5069994;28;20197;-62
2022/05/31 09:22:02;;;;;;;2.00;1.07;;;17.10;61.00;;;;;;5063766;28;20194;-62
2022/05/31 09:24:28;;;;;;;1.80;1.10;;;17.30;60.30;;;;;;5053341;28;20194;-62
2022/05/31 09:27:08;;;;;;;1.73;1.30;;;17.40;57.80;;;;;;5054829;28;20269;-62
2022/05/31 09:29:59;;;;;;;1.63;0.70;;;17.50;58.60;;;;;;5059437;28;20189;-63
2022/05/31 09:32:44;;;;;;;2.70;1.20;;;17.50;58.60;;;;;;5062737;28;20187;-63
2022/05/31 09:35:16;;;;;;;1.00;0.90;;;17.70;59.70;;;;;;5061396;28;20216;-61
2022/05/31 09:38:15;;;;;;;1.50;1.30;;;17.80;59.40;;;;;;5057803;28;20213;-60
2022/05/31 09:40:44;;;;;;;1.30;1.20;;;18.00;58.40;;;;;;5074182;28;20237;-60
2022/05/31 09:43:35;;;;;;;1.20;1.10;;;18.10;57.50;;;;;;5062578;28;20329;-61
2022/05/31 09:46:10;;;;;;;2.83;1.20;;;18.20;56.60;;;;;;5074153;28;20193;-61
2022/05/31 09:48:56;;;;;;;1.10;1.00;;;18.20;54.90;;;;;;5083231;28;20244;-61
2022/05/31 09:51:25;;;;;;;3.00;1.00;;;18.30;55.90;;;;;;5071650;28;20185;-61
2022/05/31 09:59:26;;;;;;;1.23;1.13;;;18.50;55.10;;;;;;5074549;28;20334;-62
2022/05/31 10:01:52;;;;;;;1.97;1.03;;;18.60;53.90;;;;;;5072620;28;20221;-62
2022/05/31 10:04:26;;;;;;;1.47;1.20;;;18.70;54.90;;;;;;5073900;28;20221;-62
2022/05/31 10:07:05;;;;;;;1.30;1.20;;;18.80;55.70;;;;;;5073608;28;20260;-62
2022/05/31 10:09:33;;;;;;;1.27;1.10;;;18.90;54.70;;;;;;5065477;28;20189;-62
2022/05/31 10:12:12;;;;;;;2.30;1.00;;;19.00;54.10;;;;;;5067936;28;20262;-62
2022/05/31 10:14:44;;;;;;;1.43;1.10;;;19.10;53.80;;;;;;5072032;28;20264;-62
2022/05/31 10:17:29;;;;;;;2.80;1.00;;;19.20;52.80;;;;;;5067090;28;20205;-62
2022/05/31 10:20:21;;;;;;;1.10;1.00;;;19.20;53.80;;;;;;5062516;28;20186;-62
2022/05/31 10:22:52;;;;;;;1.00;0.90;;;19.30;53.60;;;;;;5072397;28;20201;-62
2022/05/31 10:25:48;;;;;;;1.23;1.13;;;19.40;54.80;;;;;;5067924;28;20189;-61
2022/05/31 10:28:29;;;;;;;1.57;1.27;;;19.50;55.20;;;;;;5051721;28;20221;-61
2022/05/31 10:31:33;;;;;;;1.70;1.30;;;19.60;55.00;;;;;;5062705;28;20189;-62
2022/05/31 10:34:02;;;;;;;1.47;1.17;;;19.70;54.90;;;;;;5061223;28;20209;-62
2022/05/31 10:36:45;;;;;;;1.10;1.00;;;19.80;54.10;;;;;;5068725;28;20221;-62
2022/05/31 10:39:11;;;;;;;1.37;1.20;;;19.90;54.90;;;;;;5074005;28;20189;-62
2022/05/31 10:41:39;;;;;;;2.23;1.37;;;20.00;54.50;;;;;;5062359;28;20197;-62
2022/05/31 10:44:15;;;;;;;1.80;1.40;;;20.10;54.40;;;;;;5069238;28;20197;-62
2022/05/31 10:46:47;;;;;;;1.47;1.37;;;20.20;54.80;;;;;;5067503;28;20950;-62
2022/05/31 10:49:19;;;;;;;2.53;1.50;;;20.20;50.10;;;;;;5076117;28;20278;-62
2022/05/31 10:52:03;;;;;;;1.57;1.40;;;20.30;54.00;;;;;;5071338;28;20240;-62
2022/05/31 10:54:52;;;;;;;1.40;1.20;;;20.30;54.70;;;;;;5060803;28;20235;-62
2022/05/31 10:57:24;;;;;;;1.33;1.23;;;20.40;55.60;;;;;;5064123;28;20194;-62
2022/05/31 11:00:00;;;;;;;1.47;1.10;;;20.50;55.30;;;;;;5067765;28;20193;-62
2022/05/31 11:02:32;;;;;;;1.77;1.37;;;20.70;54.20;;;;;;5060274;28;20196;-62
2022/05/31 11:05:04;;;;;;;4.60;1.60;;;20.80;53.80;;;;;;5069235;28;20190;-62
2022/05/31 11:13:54;;;;;;;1.30;1.20;;;21.20;56.60;;;;;;5058416;28;20192;-63
2022/05/31 11:16:22;;;;;;;5.07;2.17;;;21.30;55.30;;;;;;5073874;28;20269;-63
2022/05/31 11:18:56;;;;;;;2.67;1.80;;;21.40;54.00;;;;;;5071558;28;20196;-63
2022/05/31 11:21:44;;;;;;;21.77;14.40;;;21.60;52.90;;;;;;5074344;28;20201;-64
2022/05/31 11:24:25;;;;;;;4.60;2.90;;;21.70;53.10;;;;;;5076655;28;20190;-64
2022/05/31 11:26:59;;;;;;;6.37;4.60;;;21.70;51.50;;;;;;5066263;28;20198;-63
2022/05/31 11:29:24;;;;;;;4.40;3.70;;;21.80;54.10;;;;;;5055712;28;20221;-64
2022/05/31 11:32:17;;;;;;;3.50;2.47;;;21.80;50.20;;;;;;5066422;28;20186;-64
2022/05/31 11:35:07;;;;;;;5.47;4.10;;;22.00;54.40;;;;;;5076905;28;20193;-64
2022/05/31 11:37:42;;;;;;;4.17;1.87;;;22.20;50.10;;;;;;5055098;28;20190;-62
2022/05/31 11:40:33;;;;;;;4.80;2.80;;;22.30;50.60;;;;;;5057508;28;20257;-62
2022/05/31 11:43:11;;;;;;;3.53;2.20;;;22.60;52.30;;;;;;5071203;28;20258;-62
2022/05/31 11:45:50;;;;;;;3.33;2.10;;;22.80;50.90;;;;;;5069742;28;20196;-62
2022/05/31 11:48:34;;;;;;;2.77;2.07;;;23.20;52.80;;;;;;5073209;28;20215;-62
2022/05/31 11:51:23;;;;;;;2.50;2.00;;;23.70;53.60;;;;;;5072960;28;20185;-62
2022/05/31 11:54:19;;;;;;;3.60;2.17;;;24.30;51.50;;;;;;5064789;28;20186;-62
2022/05/31 11:57:09;;;;;;;4.37;2.40;;;24.90;49.80;;;;;;5065590;28;20185;-62
2022/05/31 11:59:53;;;;;;;3.43;1.90;;;25.70;48.10;;;;;;5078786;28;20190;-62
2022/05/31 12:02:34;;;;;;;6.27;4.03;;;26.40;46.60;;;;;;5069155;28;20273;-62
2022/05/31 12:05:29;;;;;;;6.83;5.40;;;27.30;45.10;;;;;;5064899;28;20189;-62
2022/05/31 12:08:09;;;;;;;3.23;2.43;;;28.00;40.30;;;;;;5088280;28;20228;-62
2022/05/31 12:10:44;;;;;;;6.20;2.70;;;28.40;39.10;;;;;;5074045;28;20182;-62
2022/05/31 12:13:11;;;;;;;5.17;3.53;;;28.80;39.00;;;;;;5089361;28;20193;-62
2022/05/31 12:15:43;;;;;;;13.83;6.40;;;29.60;37.60;;;;;;5065521;28;20280;-62
2022/05/31 12:18:18;;;;;;;4.00;1.80;;;30.60;37.70;;;;;;5072552;28;20185;-63
2022/05/31 12:20:53;;;;;;;3.20;1.50;;;31.00;34.10;;;;;;5071294;28;20192;-63
2022/05/31 12:23:32;;;;;;;1.73;1.43;;;31.40;35.50;;;;;;5068322;28;20187;-62
2022/05/31 12:26:01;;;;;;;2.67;1.50;;;31.90;37.00;;;;;;5070254;28;20185;-62
2022/05/31 12:28:31;;;;;;;1.40;1.30;;;32.70;35.40;;;;;;5079924;28;20259;-60
2022/05/31 12:31:07;;;;;;;3.80;1.57;;;33.40;33.40;;;;;;5070467;28;20185;-60
2022/05/31 12:33:46;;;;;;;1.70;1.27;;;33.90;32.30;;;;;;5058613;28;20173;-60
2022/05/31 12:36:23;;;;;;;2.40;1.47;;;34.50;30.40;;;;;;5068093;28;20189;-60
2022/05/31 12:39:06;;;;;;;4.70;1.50;;;35.10;30.30;;;;;;5065539;28;20190;-60
2022/05/31 12:41:39;;;;;;;2.23;1.33;;;35.60;29.00;;;;;;5065368;28;20193;-62
2022/05/31 12:44:27;;;;;;;1.60;1.20;;;36.20;29.60;;;;;;5070115;28;20231;-62
2022/05/31 12:46:53;;;;;;;1.97;1.00;;;36.60;28.00;;;;;;5062181;28;20198;-62
2022/05/31 12:49:24;;;;;;;1.73;1.10;;;36.70;28.00;;;;;;5050549;28;20327;-62
2022/05/31 12:52:09;;;;;;;1.87;1.20;;;37.00;26.90;;;;;;5069170;28;20235;-62
2022/05/31 12:54:50;;;;;;;2.60;1.10;;;37.10;27.20;;;;;;5061381;28;20192;-62
2022/05/31 12:57:22;;;;;;;1.80;1.30;;;37.70;27.10;;;;;;5069104;28;20255;-62
2022/05/31 12:59:49;;;;;;;4.73;1.20;;;38.10;25.90;;;;;;5062527;28;20193;-62
2022/05/31 13:02:37;;;;;;;1.70;1.40;;;38.70;25.10;;;;;;5062273;28;20189;-62
2022/05/31 13:05:24;;;;;;;3.80;1.23;;;39.20;24.00;;;;;;5067680;28;20208;-62
2022/05/31 13:08:22;;;;;;;3.83;1.30;;;39.70;23.10;;;;;;5073563;28;20238;-62
2022/05/31 13:19:37;;;;;;;1.63;1.40;;;37.20;27.30;;;;;;5065518;28;20200;-62
2022/05/31 13:22:08;;;;;;;1.80;1.00;;;36.30;27.80;;;;;;5062258;28;20249;-63
2022/05/31 13:24:42;;;;;;;1.30;1.20;;;35.70;28.50;;;;;;5064760;28;20210;-61
2022/05/31 13:27:09;;;;;;;3.37;1.33;;;34.80;29.70;;;;;;5050972;28;20194;-61
2022/05/31 13:29:34;;;;;;;1.60;1.50;;;34.20;30.30;;;;;;5063627;28;20209;-61
2022/05/31 13:32:01;;;;;;;2.30;1.00;;;33.60;31.70;;;;;;5048613;28;20220;-61
2022/05/31 13:34:37;;;;;;;1.63;1.33;;;33.10;31.90;;;;;;5063850;28;20195;-61
2022/05/31 13:37:19;;;;;;;2.13;1.37;;;33.00;32.40;;;;;;5063183;28;20242;-61
2022/05/31 13:39:47;;;;;;;3.07;1.60;;;32.30;31.60;;;;;;5059645;28;20236;-61
2022/05/31 13:42:36;;;;;;;2.07;1.20;;;32.20;33.40;;;;;;5067394;28;20238;-62
2022/05/31 13:45:09;;;;;;;1.73;1.37;;;32.20;34.00;;;;;;5072142;28;20272;-62
2022/05/31 13:47:45;;;;;;;1.27;1.17;;;31.80;34.70;;;;;;5069942;28;20256;-62
2022/05/31 13:50:22;;;;;;;2.17;1.60;;;31.80;34.60;;;;;;5059685;28;20193;-62